createdAt,value
2023-04-22T00:03:22.604Z,100046.88
2023-04-22T00:08:26.885Z,100050.06
2023-04-22T00:13:30.814Z,100039.03
2023-04-22T00:18:38.411Z,100036.72
2023-04-22T00:23:42.453Z,100026.00
2023-04-22T00:28:45.782Z,100021.03
2023-04-22T00:33:50.674Z,100019.69
2023-04-22T00:38:54.267Z,100019.03
2023-04-22T00:43:58.709Z,100016.66
2023-04-22T00:49:04.576Z,100008.44
2023-04-22T00:54:07.874Z,100012.16
2023-04-22T00:59:12.406Z,100003.63
2023-04-22T01:04:18.601Z,100001.00
2023-04-22T01:09:22.118Z,99999.34
2023-04-22T01:14:26.155Z,99998.53
2023-04-22T01:19:30.881Z,99991.34
2023-04-22T01:24:36.568Z,99992.16
2023-04-22T01:29:41.745Z,99989.69
2023-04-22T01:34:45.722Z,99992.31
2023-04-22T01:39:51.622Z,99986.22
2023-04-22T01:44:55.709Z,99983.63
2023-04-22T01:49:59.270Z,99981.00
2023-04-22T01:55:05.510Z,99981.16
2023-04-22T02:00:10.441Z,99976.72
2023-04-22T02:05:14.876Z,99979.50
2023-04-22T02:10:19.695Z,99988.47
2023-04-22T02:15:23.403Z,99983.53
2023-04-22T02:20:27.770Z,99978.59
2023-04-22T02:25:32.960Z,99982.63
2023-04-22T02:30:37.610Z,99971.59
2023-04-22T02:35:42.679Z,99972.88
2023-04-22T02:40:47.521Z,99972.31
2023-04-22T02:45:51.085Z,99965.84
2023-04-22T02:50:54.282Z,99966.31
2023-04-22T02:56:01.264Z,99966.88
2023-04-22T03:01:04.834Z,99964.56
2023-04-22T03:06:08.703Z,99967.47
2023-04-22T03:11:14.406Z,99961.84
2023-04-22T03:16:19.057Z,99971.63
2023-04-22T03:21:23.139Z,99973.72
2023-04-22T03:26:31.092Z,99979.25
2023-04-22T03:31:34.847Z,99977.88
2023-04-22T03:36:38.746Z,99954.75
2023-04-22T03:41:43.639Z,99963.03
2023-04-22T03:46:47.161Z,99966.75
2023-04-22T03:51:51.959Z,99966.06
2023-04-22T03:56:58.368Z,99956.69
2023-04-22T04:02:01.889Z,99951.63
2023-04-22T04:07:05.687Z,99950.78
2023-04-22T04:12:11.940Z,99953.41
2023-04-22T04:17:15.405Z,99962.09
2023-04-22T04:22:20.123Z,99954.91
2023-04-22T04:27:28.502Z,99957.41
2023-04-22T04:32:34.866Z,99959.72
2023-04-22T04:37:40.860Z,99959.56
2023-04-22T04:42:45.773Z,99961.63
2023-04-22T04:47:50.953Z,99967.13
2023-04-22T04:52:54.539Z,99969.97
2023-04-22T04:57:59.465Z,99968.16
2023-04-22T05:03:03.831Z,99960.38
2023-04-22T05:08:07.326Z,99963.47
2023-04-22T05:13:12.289Z,99978.72
2023-04-22T05:18:16.132Z,99996.28
2023-04-22T05:23:21.155Z,99988.47
2023-04-22T05:28:26.994Z,99978.00
2023-04-22T05:33:30.543Z,99980.66
2023-04-22T05:38:33.847Z,99982.38
2023-04-22T05:43:41.780Z,99981.00
2023-04-22T05:48:45.890Z,99990.59
2023-04-22T05:53:49.805Z,99992.41
2023-04-22T05:58:54.801Z,99996.09
2023-04-22T06:04:00.854Z,99991.13
2023-04-22T06:09:04.704Z,99995.09
2023-04-22T06:14:09.732Z,99988.72
2023-04-22T06:19:13.040Z,99994.72
2023-04-22T06:24:16.473Z,99991.13
2023-04-22T06:29:29.564Z,99985.81
2023-04-22T06:34:35.346Z,99980.09
2023-04-22T06:39:39.433Z,99984.47
2023-04-22T06:44:45.030Z,99984.88
2023-04-22T06:49:50.597Z,99983.22
2023-04-22T06:54:53.952Z,99985.94
2023-04-22T07:00:02.668Z,99976.97
2023-04-22T07:05:07.080Z,99984.28
2023-04-22T07:10:15.192Z,99982.94
2023-04-22T07:15:21.221Z,99977.97
2023-04-22T07:20:24.865Z,99971.81
2023-04-22T07:25:28.389Z,99967.59
2023-04-22T07:30:33.455Z,99958.41
2023-04-22T07:35:37.665Z,99966.09
2023-04-22T07:40:42.281Z,99972.00
2023-04-22T07:45:47.491Z,99954.50
2023-04-22T07:50:51.028Z,99955.84
2023-04-22T07:55:55.097Z,99951.34
2023-04-22T08:01:04.732Z,99946.97
2023-04-22T08:06:08.998Z,99946.97
2023-04-22T08:11:17.285Z,99944.03
2023-04-22T08:16:23.606Z,99935.38
2023-04-22T08:21:27.501Z,99934.56
2023-04-22T08:26:31.639Z,99932.66
2023-04-22T08:31:37.298Z,99923.59
2023-04-22T08:36:41.250Z,99921.75
2023-04-22T08:41:59.138Z,99917.22
2023-04-22T08:47:09.592Z,99906.56
2023-04-22T08:52:15.959Z,99904.69
2023-04-22T08:57:22.161Z,99899.31
2023-04-22T09:02:30.728Z,99905.94
2023-04-22T09:07:35.637Z,99913.03
2023-04-22T09:12:40.149Z,99901.84
2023-04-22T09:18:00.960Z,99895.25
2023-04-22T09:23:06.856Z,99903.75
2023-04-22T09:28:15.380Z,99896.06
2023-04-22T09:33:20.425Z,99888.75
2023-04-22T09:38:24.049Z,99880.06
2023-04-22T09:43:27.779Z,99885.69
2023-04-22T09:48:32.449Z,99884.69
2023-04-22T09:53:40.234Z,99879.41
2023-04-22T09:58:44.889Z,99881.31
2023-04-22T10:03:55.167Z,99873.66
2023-04-22T10:09:02.775Z,99873.81
2023-04-22T10:14:07.288Z,99867.06
2023-04-22T10:19:18.109Z,99856.09
2023-04-22T10:24:30.043Z,99863.59
2023-04-22T10:29:42.667Z,99856.97
2023-04-22T10:34:50.648Z,99847.88
2023-04-22T10:40:09.502Z,99847.19
2023-04-22T10:45:16.139Z,99851.13
2023-04-22T10:50:31.512Z,99848.00
2023-04-22T10:55:53.641Z,99836.22
2023-04-22T11:01:03.440Z,99836.31
2023-04-22T11:06:27.945Z,99818.84
2023-04-22T11:11:35.173Z,99807.81
2023-04-22T11:16:40.204Z,99804.78
2023-04-22T11:21:45.677Z,99801.09
2023-04-22T11:26:49.791Z,99788.75
2023-04-22T11:31:54.354Z,99795.00
2023-04-22T11:36:59.672Z,99795.03
2023-04-22T11:42:04.244Z,99792.22
2023-04-22T11:47:09.564Z,99784.88
2023-04-22T11:52:23.144Z,99784.53
2023-04-22T11:57:27.378Z,99784.53
2023-04-22T12:02:31.136Z,99786.47
2023-04-22T12:07:36.360Z,99784.34
2023-04-22T12:12:41.609Z,99769.63
2023-04-22T12:17:46.547Z,99757.88
2023-04-22T12:22:54.514Z,99756.09
2023-04-22T12:27:58.321Z,99749.09
2023-04-22T12:33:02.193Z,99731.06
2023-04-22T12:38:21.853Z,99739.31
2023-04-22T12:43:26.613Z,99746.13
2023-04-22T12:48:32.424Z,99732.53
2023-04-22T12:53:38.682Z,99730.09
2023-04-22T12:58:43.682Z,99730.81
2023-04-22T13:03:48.248Z,99727.19
2023-04-22T13:08:53.788Z,99715.94
2023-04-22T13:13:57.815Z,99715.81
2023-04-22T13:19:04.861Z,99701.50
2023-04-22T13:24:10.568Z,99708.38
2023-04-22T13:29:14.707Z,99704.38
2023-04-22T13:34:19.667Z,99700.34
2023-04-22T13:39:25.230Z,99681.38
2023-04-22T13:44:29.180Z,99672.28
2023-04-22T13:49:32.677Z,99666.69
2023-04-22T13:54:38.140Z,99656.53
2023-04-22T13:59:43.353Z,99663.72
2023-04-22T14:04:48.482Z,99648.28
2023-04-22T14:09:53.914Z,99652.22
2023-04-22T14:14:58.983Z,99632.56
2023-04-22T14:20:02.427Z,99624.22
2023-04-22T14:25:08.691Z,99621.66
2023-04-22T14:30:22.430Z,99619.88
2023-04-22T14:35:26.319Z,99620.50
2023-04-22T14:40:31.761Z,99607.13
2023-04-22T14:45:35.428Z,99605.16
2023-04-22T14:50:40.186Z,99600.25
2023-04-22T14:55:45.636Z,99592.94
2023-04-22T15:00:49.666Z,99591.59
2023-04-22T15:05:53.596Z,99588.94
2023-04-22T15:11:00.057Z,99589.63
2023-04-22T15:16:03.642Z,99578.34
2023-04-22T15:21:10.391Z,99580.81
2023-04-22T15:26:15.464Z,99577.34
2023-04-22T15:31:19.386Z,99576.59
2023-04-22T15:36:24.095Z,99572.97
2023-04-22T15:41:30.162Z,99562.53
2023-04-22T15:46:36.160Z,99561.72
2023-04-22T15:51:42.262Z,99571.22
2023-04-22T15:56:52.540Z,99566.34
2023-04-22T16:01:58.679Z,99561.81
2023-04-22T16:07:03.413Z,99559.88
2023-04-22T16:12:15.023Z,99551.13
2023-04-22T16:17:19.154Z,99552.41
2023-04-22T16:22:23.340Z,99544.56
2023-04-22T16:27:29.225Z,99543.59
2023-04-22T16:32:34.199Z,99536.66
2023-04-22T16:37:38.634Z,99539.19
2023-04-22T16:42:45.828Z,99532.88
2023-04-22T16:47:50.640Z,99532.97
2023-04-22T16:52:57.232Z,99533.63
2023-04-22T16:58:04.476Z,99520.75
2023-04-22T17:03:16.741Z,99512.38
2023-04-22T17:08:22.366Z,99510.41
2023-04-22T17:13:29.463Z,99508.94
2023-04-22T17:18:35.092Z,99508.56
2023-04-22T17:23:39.452Z,99503.88
2023-04-22T17:28:51.097Z,99492.88
2023-04-22T17:33:55.696Z,99488.66
2023-04-22T17:38:59.827Z,99494.66
2023-04-22T17:44:07.633Z,99488.78
2023-04-22T17:49:12.485Z,99489.28
2023-04-22T17:54:15.965Z,99497.78
2023-04-22T17:59:21.347Z,99497.25
2023-04-22T18:04:25.080Z,99495.53
2023-04-22T18:09:29.098Z,99493.72
2023-04-22T18:14:33.952Z,99500.78
2023-04-22T18:19:41.649Z,99500.06
2023-04-22T18:24:46.071Z,99497.69
2023-04-22T18:29:52.080Z,99502.50
2023-04-22T18:34:55.924Z,99510.53
2023-04-22T18:40:06.921Z,99507.31
2023-04-22T18:45:21.379Z,99508.16
2023-04-22T18:50:25.574Z,99513.53
2023-04-22T18:55:29.945Z,99509.06
2023-04-22T19:00:35.240Z,99509.91
2023-04-22T19:05:41.019Z,99498.53
2023-04-22T19:10:44.713Z,99509.72
2023-04-22T19:15:50.068Z,99515.88
2023-04-22T19:20:55.806Z,99514.84
2023-04-22T19:26:17.312Z,99521.78
2023-04-22T19:31:23.757Z,99522.19
2023-04-22T19:36:28.579Z,99509.53
2023-04-22T19:41:35.383Z,99513.59
2023-04-22T19:46:41.148Z,99501.13
2023-04-22T19:51:47.254Z,99502.78
2023-04-22T19:56:53.291Z,99499.69
2023-04-22T20:01:59.070Z,99496.41
2023-04-22T20:07:04.282Z,99505.16
2023-04-22T20:12:09.600Z,99498.00
2023-04-22T20:17:16.070Z,99484.16
2023-04-22T20:22:20.525Z,99488.44
2023-04-22T20:27:27.406Z,99484.34
2023-04-22T20:32:34.268Z,99486.22
2023-04-22T20:37:40.461Z,99481.91
2023-04-22T20:42:44.755Z,99482.19
2023-04-22T20:47:50.082Z,99478.72
2023-04-22T20:52:54.670Z,99479.94
2023-04-22T20:57:59.254Z,99484.03
2023-04-22T21:03:04.997Z,99493.63
2023-04-22T21:08:22.878Z,99505.84
2023-04-22T21:13:29.863Z,99501.34
2023-04-22T21:18:35.958Z,99505.78
2023-04-22T21:23:42.668Z,99508.00
2023-04-22T21:28:48.740Z,99508.00
2023-04-22T21:33:54.405Z,99503.28
2023-04-22T21:38:58.798Z,99514.69
2023-04-22T21:44:02.812Z,99506.94
2023-04-22T21:49:08.324Z,99514.06
2023-04-22T21:54:13.272Z,99507.50
2023-04-22T21:59:16.563Z,99516.09
2023-04-22T22:04:23.567Z,99509.94
2023-04-22T22:09:27.865Z,99514.81
2023-04-22T22:14:31.476Z,99516.84
2023-04-22T22:19:39.410Z,99520.72
2023-04-22T22:24:46.807Z,99521.31
2023-04-22T22:29:51.227Z,99526.19
2023-04-22T22:35:04.154Z,99526.41
2023-04-22T22:40:09.167Z,99529.00
2023-04-22T22:45:13.750Z,99533.25
2023-04-22T22:50:30.764Z,99540.75
2023-04-22T22:55:34.585Z,99546.63
2023-04-22T23:00:40.664Z,99549.59
2023-04-22T23:05:47.207Z,99548.09
2023-04-22T23:10:50.721Z,99539.88
2023-04-22T23:15:54.640Z,99526.97
2023-04-22T23:21:16.569Z,99524.34
2023-04-22T23:26:21.663Z,99522.25
2023-04-22T23:31:26.689Z,99524.06
2023-04-22T23:36:33.756Z,99519.78
2023-04-22T23:41:38.220Z,99518.50
2023-04-22T23:46:42.483Z,99518.31
2023-04-22T23:51:47.437Z,99516.69
2023-04-22T23:56:52.139Z,99508.13
